Fairbury, NE (68352)

11:00 PM CDT on July 11, 2014 (GMT -0500)
Crystal Springs Campground (KNEFAIRB2) Elev 1424 ft | 40.13 °N, 97.21 °W | Change Station

Current weather conditions updated 3 seconds ago

Clear
Clear
81.1 °F
Feels Like 84 °F
N
5.0
Wind Variable Wind from SSW
Gusts 11.0 mph

Tomorrow is forecast to be nearly the same temperature as today. Late night thunderstorms tomorrow night.

Today
High -- | Low -- °F
--% Chance of Precip.
Yesterday
High -- | Low -- °F
Precip. -- in
6:09 AM 8:58 PM
Full, 100% visible
Pressure 29.99 in
Visibility 10.0 miles
Clouds Clear
Heat Index 84 °F
Dew Point 69 °F
Humidity 67%
Rainfall 0.00 in
Snow Depth Not available.
UV 0 out of 12
Pollen 4.80 out of 12
Air Quality Not available.
Flu Activity Sporadic
METAR KHJH 120335Z AUTO 18006KT 10SM CLR 28/19 A2999 RMK AO2 T02750190

More Conditions Fewer Conditions

Pressure 29.99 in
Visibility 10.0 miles
Clouds Clear
Heat Index 84 °F
Dew Point 69 °F
Humidity 67%
Rainfall 0.00 in
Snow Depth Not available.
UV 0 out of 12
Pollen 4.80 out of 12
Air Quality Not available.
Flu Activity Sporadic
METAR KHJH 120335Z AUTO 18006KT 10SM CLR 28/19 A2999 RMK AO2 T02750190

More Conditions Fewer Conditions

10-Day Weather Forecast

Almanac

Astronomy

Jul. 11, 2014 Rise Set
Actual Time 6:09 AM CDT 8:58 PM CDT
Civil Twilight 5:36 AM CDT 9:31 PM CDT
Nautical Twilight 4:56 AM CDT 10:11 PM CDT
Astronomical Twilight 4:09 AM CDT 10:58 PM CDT
Moon 8:10 PM CDT (7/11) 5:22 AM CDT (7/11)
Length of Visible Light 15h 54m
Length of Day
14h 49m
Tomorrow will be 1m 12s shorter.
Full, 100% of the Moon is Illuminated
Jul 12
Full
Jul 12
Full
Jul 18
Last Quarter
Jul 26
New
Aug 3
First Quarter

Today's Extremes

State Highs State Lows

Community

WunderPhotos

Upload Photos

1,732,699 photos uploaded!

Nearby

Snow Depth

Station Depth Elevation
No new snow has been reported.

Earthquake Activity

City Distance Mag. Time & Date
No recent earthquake activity has been reported nearby.
Minimum magnitude displayed is 2.5.

Coastal Water Temperatures

Place Temperature
No Stations Reporting

Nearby Weather Stations

Station Location Temp. Heat Index Dew Point Humidity Wind Precip. Elev Updated Type
Crystal Springs Campground, Fairbury, NE 81.1 °F 84 °F 69 °F 67% SSW  at  5.0 mph 0.00 in / hr 1424 ft 11:00 PM CDT Rapid Fire
MesoWest STEEL1 , Steele City, NE 83 °F 81 °F - - North  at  - 0.00 in / hr 1275 ft 10:00 PM CDT MADIS
MesoWest ALEXR1 , Alexandria, NE 82 °F 80 °F - - North  at  - 0.00 in / hr 1397 ft 10:00 PM CDT MADIS

Show More Stations Show Fewer Stations